sensor_id;sensor_type;location;lat;lon;timestamp;pressure;altitude;pressure_sealevel;temperature;humidity
22649;BME280;11491;41.942;24.220;2022-12-19T00:01:07;91220.84;;;3.87;88.20
22649;BME280;11491;41.942;24.220;2022-12-19T00:03:40;91225.63;;;3.80;87.91
22649;BME280;11491;41.942;24.220;2022-12-19T00:06:07;91228.28;;;3.75;88.40
22649;BME280;11491;41.942;24.220;2022-12-19T00:08:34;91237.81;;;3.76;88.43
22649;BME280;11491;41.942;24.220;2022-12-19T00:11:02;91241.50;;;3.80;88.04
22649;BME280;11491;41.942;24.220;2022-12-19T00:13:30;91234.91;;;3.72;88.20
22649;BME280;11491;41.942;24.220;2022-12-19T00:16:01;91238.09;;;3.74;88.79
22649;BME280;11491;41.942;24.220;2022-12-19T00:18:28;91235.72;;;3.73;88.32
22649;BME280;11491;41.942;24.220;2022-12-19T00:20:57;91228.31;;;3.64;88.52
22649;BME280;11491;41.942;24.220;2022-12-19T00:23:24;91234.66;;;3.69;87.81
22649;BME280;11491;41.942;24.220;2022-12-19T00:25:51;91235.19;;;3.71;88.55
22649;BME280;11491;41.942;24.220;2022-12-19T00:28:20;91227.78;;;3.67;88.94
22649;BME280;11491;41.942;24.220;2022-12-19T00:30:48;91233.84;;;3.78;88.89
22649;BME280;11491;41.942;24.220;2022-12-19T00:33:16;91233.34;;;3.71;88.11
22649;BME280;11491;41.942;24.220;2022-12-19T00:35:43;91238.59;;;3.81;88.16
22649;BME280;11491;41.942;24.220;2022-12-19T00:38:10;91247.84;;;3.84;87.57
22649;BME280;11491;41.942;24.220;2022-12-19T00:40:37;91244.94;;;3.85;88.05
22649;BME280;11491;41.942;24.220;2022-12-19T00:43:03;91234.63;;;3.84;87.27
22649;BME280;11491;41.942;24.220;2022-12-19T00:45:30;91242.03;;;3.82;88.45
22649;BME280;11491;41.942;24.220;2022-12-19T00:47:58;91237.25;;;3.89;86.90
22649;BME280;11491;41.942;24.220;2022-12-19T00:50:25;91233.81;;;3.88;85.99
22649;BME280;11491;41.942;24.220;2022-12-19T00:52:52;91232.81;;;3.69;86.60
22649;BME280;11491;41.942;24.220;2022-12-19T00:55:18;91239.19;;;3.68;87.84
22649;BME280;11491;41.942;24.220;2022-12-19T00:57:45;91245.50;;;3.72;87.81
22649;BME280;11491;41.942;24.220;2022-12-19T01:00:14;91234.69;;;3.58;87.67
22649;BME280;11491;41.942;24.220;2022-12-19T01:02:41;91228.34;;;3.54;87.63
22649;BME280;11491;41.942;24.220;2022-12-19T01:05:09;91236.78;;;3.66;87.63
22649;BME280;11491;41.942;24.220;2022-12-19T01:07:36;91248.47;;;3.55;88.59
22649;BME280;11491;41.942;24.220;2022-12-19T01:10:04;91250.81;;;3.62;87.47
22649;BME280;11491;41.942;24.220;2022-12-19T01:12:31;91229.44;;;3.48;88.02
22649;BME280;11491;41.942;24.220;2022-12-19T01:15:13;91251.09;;;3.50;88.18
22649;BME280;11491;41.942;24.220;2022-12-19T01:17:40;91243.94;;;3.61;88.67
22649;BME280;11491;41.942;24.220;2022-12-19T01:20:09;91243.69;;;3.47;87.58
22649;BME280;11491;41.942;24.220;2022-12-19T01:22:36;91244.25;;;3.44;87.39
22649;BME280;11491;41.942;24.220;2022-12-19T01:25:04;91236.34;;;3.29;88.39
22649;BME280;11491;41.942;24.220;2022-12-19T01:27:31;91237.38;;;3.22;88.91
22649;BME280;11491;41.942;24.220;2022-12-19T01:29:58;91231.59;;;3.05;89.15
22649;BME280;11491;41.942;24.220;2022-12-19T01:32:25;91226.84;;;2.97;90.25
22649;BME280;11491;41.942;24.220;2022-12-19T01:34:53;91236.88;;;2.90;90.79
22649;BME280;11491;41.942;24.220;2022-12-19T01:37:22;91228.41;;;2.98;91.39
22649;BME280;11491;41.942;24.220;2022-12-19T01:39:49;91225.78;;;2.98;90.52
22649;BME280;11491;41.942;24.220;2022-12-19T01:42:19;91224.22;;;2.76;90.87
22649;BME280;11491;41.942;24.220;2022-12-19T01:48:04;91237.66;;;2.75;91.78
22649;BME280;11491;41.942;24.220;2022-12-19T01:50:35;91233.16;;;2.65;92.19
22649;BME280;11491;41.942;24.220;2022-12-19T01:53:06;91229.75;;;2.70;92.19
22649;BME280;11491;41.942;24.220;2022-12-19T01:55:35;91229.50;;;2.56;92.61
22649;BME280;11491;41.942;24.220;2022-12-19T01:58:02;91229.50;;;2.56;92.42
22649;BME280;11491;41.942;24.220;2022-12-19T02:00:29;91221.56;;;2.56;92.35
22649;BME280;11491;41.942;24.220;2022-12-19T02:02:59;91238.19;;;2.56;92.25
22649;BME280;11491;41.942;24.220;2022-12-19T02:05:31;91239.25;;;2.61;91.58
22649;BME280;11491;41.942;24.220;2022-12-19T02:07:59;91229.97;;;2.43;91.44
22649;BME280;11491;41.942;24.220;2022-12-19T02:10:27;91204.88;;;2.20;92.27
22649;BME280;11491;41.942;24.220;2022-12-19T02:12:54;91237.88;;;2.37;92.56
22649;BME280;11491;41.942;24.220;2022-12-19T02:15:21;91244.78;;;2.39;92.59
22649;BME280;11491;41.942;24.220;2022-12-19T02:18:01;91244.22;;;2.36;93.14
22649;BME280;11491;41.942;24.220;2022-12-19T02:20:54;91244.69;;;2.18;92.83
22649;BME280;11491;41.942;24.220;2022-12-19T02:23:57;91252.06;;;2.16;93.32
22649;BME280;11491;41.942;24.220;2022-12-19T02:30:03;91256.03;;;2.13;93.24
22649;BME280;11491;41.942;24.220;2022-12-19T02:32:40;91261.03;;;2.05;93.46
22649;BME280;11491;41.942;24.220;2022-12-19T02:35:18;91258.38;;;2.00;93.58
22649;BME280;11491;41.942;24.220;2022-12-19T02:37:51;91248.81;;;1.88;94.15
22649;BME280;11491;41.942;24.220;2022-12-19T02:40:24;91258.91;;;1.97;94.39
22649;BME280;11491;41.942;24.220;2022-12-19T02:42:56;91231.97;;;1.89;94.38
22649;BME280;11491;41.942;24.220;2022-12-19T02:45:24;91254.66;;;2.01;93.90
22649;BME280;11491;41.942;24.220;2022-12-19T02:48:11;91255.75;;;2.05;94.47
22649;BME280;11491;41.942;24.220;2022-12-19T02:50:39;91251.50;;;1.99;94.23
22649;BME280;11491;41.942;24.220;2022-12-19T02:53:08;91261.50;;;1.91;94.16
22649;BME280;11491;41.942;24.220;2022-12-19T02:55:42;91247.78;;;1.89;94.10
22649;BME280;11491;41.942;24.220;2022-12-19T02:58:42;91248.53;;;1.80;94.26
22649;BME280;11491;41.942;24.220;2022-12-19T03:01:24;91247.22;;;1.82;94.70
22649;BME280;11491;41.942;24.220;2022-12-19T03:04:02;91257.56;;;1.89;94.89
22649;BME280;11491;41.942;24.220;2022-12-19T03:06:33;91257.28;;;1.96;94.81
22649;BME280;11491;41.942;24.220;2022-12-19T03:09:09;91254.09;;;1.88;94.23
22649;BME280;11491;41.942;24.220;2022-12-19T03:11:40;91239.81;;;1.74;94.22
22649;BME280;11491;41.942;24.220;2022-12-19T03:14:11;91257.03;;;1.92;93.93
22649;BME280;11491;41.942;24.220;2022-12-19T03:16:40;91260.97;;;1.84;93.40
22649;BME280;11491;41.942;24.220;2022-12-19T03:19:11;91265.13;;;1.75;94.19
22649;BME280;11491;41.942;24.220;2022-12-19T03:21:40;91266.97;;;1.75;94.34
22649;BME280;11491;41.942;24.220;2022-12-19T03:24:10;91266.19;;;1.74;93.86
22649;BME280;11491;41.942;24.220;2022-12-19T03:26:40;91257.72;;;1.72;94.23
22649;BME280;11491;41.942;24.220;2022-12-19T03:29:14;91272.53;;;1.78;94.12
22649;BME280;11491;41.942;24.220;2022-12-19T03:31:43;91276.78;;;1.84;93.89
22649;BME280;11491;41.942;24.220;2022-12-19T03:34:17;91283.13;;;1.93;93.37
22649;BME280;11491;41.942;24.220;2022-12-19T03:36:47;91284.75;;;2.00;92.68
22649;BME280;11491;41.942;24.220;2022-12-19T03:39:16;91291.59;;;2.01;91.26
22649;BME280;11491;41.942;24.220;2022-12-19T03:41:46;91284.75;;;2.00;91.03
22649;BME280;11491;41.942;24.220;2022-12-19T03:44:35;91294.22;;;1.96;90.87
22649;BME280;11491;41.942;24.220;2022-12-19T03:47:06;91294.75;;;1.92;91.34
22649;BME280;11491;41.942;24.220;2022-12-19T03:49:36;91297.94;;;2.00;91.45
22649;BME280;11491;41.942;24.220;2022-12-19T03:52:11;91292.03;;;1.77;91.24
22649;BME280;11491;41.942;24.220;2022-12-19T03:54:47;91308.47;;;1.94;91.06
22649;BME280;11491;41.942;24.220;2022-12-19T03:57:18;91303.97;;;1.90;90.72
22649;BME280;11491;41.942;24.220;2022-12-19T03:59:51;91303.25;;;2.05;91.16
22649;BME280;11491;41.942;24.220;2022-12-19T04:02:21;91309.84;;;2.02;90.76
22649;BME280;11491;41.942;24.220;2022-12-19T04:04:52;91316.97;;;2.07;89.86
22649;BME280;11491;41.942;24.220;2022-12-19T04:07:22;91316.69;;;2.03;88.96
22649;BME280;11491;41.942;24.220;2022-12-19T04:09:49;91305.88;;;2.00;89.62
22649;BME280;11491;41.942;24.220;2022-12-19T04:12:19;91309.59;;;2.09;89.21
22649;BME280;11491;41.942;24.220;2022-12-19T04:14:47;91312.72;;;2.01;88.41
22649;BME280;11491;41.942;24.220;2022-12-19T04:17:20;91306.91;;;1.99;89.14
22649;BME280;11491;41.942;24.220;2022-12-19T04:19:56;91305.88;;;2.00;89.12
22649;BME280;11491;41.942;24.220;2022-12-19T04:22:29;91305.38;;;2.08;88.41
22649;BME280;11491;41.942;24.220;2022-12-19T04:24:58;91306.44;;;2.07;88.93
22649;BME280;11491;41.942;24.220;2022-12-19T04:27:27;91311.19;;;2.10;88.80
22649;BME280;11491;41.942;24.220;2022-12-19T04:29:57;91312.25;;;2.09;88.24
22649;BME280;11491;41.942;24.220;2022-12-19T04:32:26;91309.59;;;2.09;87.76
22649;BME280;11491;41.942;24.220;2022-12-19T04:34:54;91310.00;;;1.80;87.29
22649;BME280;11491;41.942;24.220;2022-12-19T04:37:21;91313.91;;;1.72;87.60
22649;BME280;11491;41.942;24.220;2022-12-19T04:39:48;91314.19;;;1.81;87.56
22649;BME280;11491;41.942;24.220;2022-12-19T04:42:14;91321.09;;;1.87;88.01
22649;BME280;11491;41.942;24.220;2022-12-19T04:44:41;91317.38;;;1.83;87.65
22649;BME280;11491;41.942;24.220;2022-12-19T04:47:08;91313.75;;;1.94;87.50
22649;BME280;11491;41.942;24.220;2022-12-19T04:49:34;91317.44;;;1.99;86.78
22649;BME280;11491;41.942;24.220;2022-12-19T04:52:03;91316.94;;;1.97;86.83
22649;BME280;11491;41.942;24.220;2022-12-19T04:54:31;91314.28;;;1.91;86.59
22649;BME280;11491;41.942;24.220;2022-12-19T04:56:57;91324.69;;;1.71;86.80
22649;BME280;11491;41.942;24.220;2022-12-19T04:59:24;91324.13;;;1.64;87.05
22649;BME280;11491;41.942;24.220;2022-12-19T05:01:51;91323.63;;;1.67;87.21
22649;BME280;11491;41.942;24.220;2022-12-19T05:04:18;91328.41;;;1.70;87.06
22649;BME280;11491;41.942;24.220;2022-12-19T05:06:45;91333.63;;;1.65;87.57
22649;BME280;11491;41.942;24.220;2022-12-19T05:09:13;91338.69;;;1.71;87.60
22649;BME280;11491;41.942;24.220;2022-12-19T05:11:40;91338.84;;;1.55;87.36
22649;BME280;11491;41.942;24.220;2022-12-19T05:14:07;91347.03;;;1.58;88.17
22649;BME280;11491;41.942;24.220;2022-12-19T05:16:34;91349.94;;;1.57;87.79
22649;BME280;11491;41.942;24.220;2022-12-19T05:19:00;91332.44;;;1.45;88.34
22649;BME280;11491;41.942;24.220;2022-12-19T05:21:27;91339.94;;;1.64;88.06
22649;BME280;11491;41.942;24.220;2022-12-19T05:23:54;91352.09;;;1.65;87.62
22649;BME280;11491;41.942;24.220;2022-12-19T05:26:22;91355.69;;;1.54;88.32
22649;BME280;11491;41.942;24.220;2022-12-19T05:28:49;91359.94;;;1.55;88.94
22649;BME280;11491;41.942;24.220;2022-12-19T05:31:17;91358.94;;;1.66;88.98
22649;BME280;11491;41.942;24.220;2022-12-19T05:33:45;91354.28;;;1.78;89.16
22649;BME280;11491;41.942;24.220;2022-12-19T05:36:14;91364.38;;;1.86;87.86
22649;BME280;11491;41.942;24.220;2022-12-19T05:38:41;91357.47;;;1.80;87.29
22649;BME280;11491;41.942;24.220;2022-12-19T05:41:10;91356.69;;;1.85;86.59
22649;BME280;11491;41.942;24.220;2022-12-19T05:43:39;91360.66;;;1.87;86.35
22649;BME280;11491;41.942;24.220;2022-12-19T05:46:06;91359.59;;;1.88;86.90
22649;BME280;11491;41.942;24.220;2022-12-19T05:48:34;91359.09;;;1.86;86.00
22649;BME280;11491;41.942;24.220;2022-12-19T05:51:01;91362.75;;;1.85;85.87
22649;BME280;11491;41.942;24.220;2022-12-19T05:53:28;91357.97;;;1.77;85.76
22649;BME280;11491;41.942;24.220;2022-12-19T05:56:02;91362.66;;;1.65;86.70
22649;BME280;11491;41.942;24.220;2022-12-19T05:58:28;91369.56;;;1.76;86.70
22649;BME280;11491;41.942;24.220;2022-12-19T06:01:01;91367.72;;;1.71;87.12
22649;BME280;11491;41.942;24.220;2022-12-19T06:03:30;91321.34;;;1.38;86.78
22649;BME280;11491;41.942;24.220;2022-12-19T06:05:57;91349.94;;;1.57;85.85
22649;BME280;11491;41.942;24.220;2022-12-19T06:08:24;91388.50;;;1.68;86.66
22649;BME280;11491;41.942;24.220;2022-12-19T06:10:51;91374.25;;;1.69;86.90
22649;BME280;11491;41.942;24.220;2022-12-19T06:13:18;91367.34;;;1.58;85.83
22649;BME280;11491;41.942;24.220;2022-12-19T06:15:45;91340.25;;;1.30;85.78
22649;BME280;11491;41.942;24.220;2022-12-19T06:18:13;91390.72;;;1.49;86.76
22649;BME280;11491;41.942;24.220;2022-12-19T06:20:40;91258.97;;;0.47;86.58
22649;BME280;11491;41.942;24.220;2022-12-19T06:23:07;91407.09;;;1.19;86.49
22649;BME280;11491;41.942;24.220;2022-12-19T06:25:34;91348.69;;;0.68;86.96
22649;BME280;11491;41.942;24.220;2022-12-19T06:28:03;91351.34;;;0.73;87.85
22649;BME280;11491;41.942;24.220;2022-12-19T06:30:29;91376.25;;;0.87;88.08
22649;BME280;11491;41.942;24.220;2022-12-19T06:32:56;91409.59;;;1.03;89.48
22649;BME280;11491;41.942;24.220;2022-12-19T06:35:25;91370.72;;;0.61;89.68
22649;BME280;11491;41.942;24.220;2022-12-19T06:37:52;91336.25;;;0.63;89.67
22649;BME280;11491;41.942;24.220;2022-12-19T06:40:19;91403.91;;;1.17;89.22
22649;BME280;11491;41.942;24.220;2022-12-19T06:43:00;91415.44;;;1.11;89.63
22649;BME280;11491;41.942;24.220;2022-12-19T06:45:27;91419.63;;;1.06;88.72
22649;BME280;11491;41.942;24.220;2022-12-19T06:47:54;91333.94;;;0.45;88.78
22649;BME280;11491;41.942;24.220;2022-12-19T06:50:26;91415.84;;;0.97;88.50
22649;BME280;11491;41.942;24.220;2022-12-19T06:52:53;91410.53;;;0.92;88.35
22649;BME280;11491;41.942;24.220;2022-12-19T06:55:19;91429.56;;;0.99;89.71
22649;BME280;11491;41.942;24.220;2022-12-19T06:57:46;91433.34;;;1.08;89.92
22649;BME280;11491;41.942;24.220;2022-12-19T07:00:14;91430.41;;;1.05;89.96
22649;BME280;11491;41.942;24.220;2022-12-19T07:02:43;91435.75;;;1.10;90.29
22649;BME280;11491;41.942;24.220;2022-12-19T07:05:11;91438.69;;;1.19;89.67
22649;BME280;11491;41.942;24.220;2022-12-19T07:07:39;91418.09;;;1.11;88.91
22649;BME280;11491;41.942;24.220;2022-12-19T07:10:07;91426.00;;;1.11;88.29
22649;BME280;11491;41.942;24.220;2022-12-19T07:12:34;91434.44;;;1.13;89.28
22649;BME280;11491;41.942;24.220;2022-12-19T07:15:02;91424.41;;;1.10;89.03
22649;BME280;11491;41.942;24.220;2022-12-19T07:17:29;91432.25;;;1.04;89.23
22649;BME280;11491;41.942;24.220;2022-12-19T07:19:57;91410.50;;;0.87;90.00
22649;BME280;11491;41.942;24.220;2022-12-19T07:22:29;91435.41;;;1.06;89.39
22649;BME280;11491;41.942;24.220;2022-12-19T07:24:58;91436.72;;;1.04;89.38
22649;BME280;11491;41.942;24.220;2022-12-19T07:27:26;91427.94;;;0.93;90.12
22649;BME280;11491;41.942;24.220;2022-12-19T07:29:53;91436.53;;;1.11;89.59
22649;BME280;11491;41.942;24.220;2022-12-19T07:32:20;91370.34;;;0.75;90.27
22649;BME280;11491;41.942;24.220;2022-12-19T07:34:47;91449.84;;;1.26;90.15
22649;BME280;11491;41.942;24.220;2022-12-19T07:37:14;91449.34;;;1.29;89.90
22649;BME280;11491;41.942;24.220;2022-12-19T07:39:41;91455.66;;;1.28;90.07
22649;BME280;11491;41.942;24.220;2022-12-19T07:42:09;91442.44;;;1.23;90.44
22649;BME280;11491;41.942;24.220;2022-12-19T07:44:36;91464.75;;;1.42;89.72
22649;BME280;11491;41.942;24.220;2022-12-19T07:47:03;91459.50;;;1.42;88.51
22649;BME280;11491;41.942;24.220;2022-12-19T07:49:29;91462.03;;;1.32;89.19
22649;BME280;11491;41.942;24.220;2022-12-19T07:51:56;91463.56;;;1.28;89.31
22649;BME280;11491;41.942;24.220;2022-12-19T07:54:23;91459.59;;;1.25;89.75
22649;BME280;11491;41.942;24.220;2022-12-19T07:56:50;91390.31;;;0.71;90.39
22649;BME280;11491;41.942;24.220;2022-12-19T07:59:18;91484.50;;;1.13;90.49
22649;BME280;11491;41.942;24.220;2022-12-19T08:01:45;91328.53;;;0.07;90.25
22649;BME280;11491;41.942;24.220;2022-12-19T08:04:12;91327.63;;;0.18;90.36
22649;BME280;11491;41.942;24.220;2022-12-19T08:06:39;91392.81;;;0.60;90.91
22649;BME280;11491;41.942;24.220;2022-12-19T08:09:06;91407.56;;;0.61;91.58
22649;BME280;11491;41.942;24.220;2022-12-19T08:11:33;91441.38;;;0.70;92.01
22649;BME280;11491;41.942;24.220;2022-12-19T08:14:01;91321.69;;;0.06;91.28
22649;BME280;11491;41.942;24.220;2022-12-19T08:16:32;91359.25;;;0.24;92.00
22649;BME280;11491;41.942;24.220;2022-12-19T08:19:00;91501.34;;;1.12;92.60
22649;BME280;11491;41.942;24.220;2022-12-19T08:21:30;91502.44;;;1.16;92.87
22649;BME280;11491;41.942;24.220;2022-12-19T08:23:56;91370.38;;;0.31;92.88
22649;BME280;11491;41.942;24.220;2022-12-19T08:26:24;91462.34;;;0.86;92.23
22649;BME280;11491;41.942;24.220;2022-12-19T08:28:51;91492.25;;;0.97;92.11
22649;BME280;11491;41.942;24.220;2022-12-19T08:31:19;91422.13;;;0.47;93.04
22649;BME280;11491;41.942;24.220;2022-12-19T08:33:48;91472.53;;;0.56;93.58
22649;BME280;11491;41.942;24.220;2022-12-19T08:36:15;91432.66;;;0.47;93.28
22649;BME280;11491;41.942;24.220;2022-12-19T08:38:44;91359.84;;;-0.13;93.79
22649;BME280;11491;41.942;24.220;2022-12-19T08:41:14;91465.13;;;0.75;93.95
22649;BME280;11491;41.942;24.220;2022-12-19T08:43:41;91493.34;;;0.79;93.51
22649;BME280;11491;41.942;24.220;2022-12-19T08:46:08;91429.00;;;0.48;93.31
22649;BME280;11491;41.942;24.220;2022-12-19T08:48:35;91366.84;;;-0.02;93.91
22649;BME280;11491;41.942;24.220;2022-12-19T08:51:06;91382.13;;;0.01;93.78
22649;BME280;11491;41.942;24.220;2022-12-19T08:53:36;91455.56;;;0.69;92.24
22649;BME280;11491;41.942;24.220;2022-12-19T08:56:05;91344.00;;;-0.18;92.98
22649;BME280;11491;41.942;24.220;2022-12-19T08:58:33;91464.13;;;0.59;93.35
22649;BME280;11491;41.942;24.220;2022-12-19T09:01:00;91364.31;;;-0.14;93.61
22649;BME280;11491;41.942;24.220;2022-12-19T09:03:29;91452.31;;;0.61;93.01
22649;BME280;11491;41.942;24.220;2022-12-19T09:05:57;91469.28;;;0.71;93.05
22649;BME280;11491;41.942;24.220;2022-12-19T09:08:26;91371.66;;;-0.16;92.98
22649;BME280;11491;41.942;24.220;2022-12-19T09:10:56;91459.59;;;0.54;93.21
22649;BME280;11491;41.942;24.220;2022-12-19T09:13:25;91478.66;;;0.83;92.84
22649;BME280;11491;41.942;24.220;2022-12-19T09:15:58;91401.41;;;0.51;92.07
22649;BME280;11491;41.942;24.220;2022-12-19T09:18:26;91395.59;;;0.27;92.08
22649;BME280;11491;41.942;24.220;2022-12-19T09:20:53;91505.88;;;0.94;92.44
22649;BME280;11491;41.942;24.220;2022-12-19T09:23:20;91363.66;;;-0.04;92.67
22649;BME280;11491;41.942;24.220;2022-12-19T09:25:49;91468.28;;;0.77;92.47
22649;BME280;11491;41.942;24.220;2022-12-19T09:28:17;91343.91;;;-0.07;92.77
22649;BME280;11491;41.942;24.220;2022-12-19T09:30:44;91344.81;;;0.04;92.79
22649;BME280;11491;41.942;24.220;2022-12-19T09:33:11;91470.22;;;1.08;93.00
22649;BME280;11491;41.942;24.220;2022-12-19T09:35:38;91356.06;;;0.21;91.16
22649;BME280;11491;41.942;24.220;2022-12-19T09:38:14;91351.13;;;0.03;92.19
22649;BME280;11491;41.942;24.220;2022-12-19T09:40:50;91358.13;;;0.19;92.00
22649;BME280;11491;41.942;24.220;2022-12-19T09:43:30;91484.25;;;1.14;91.32
22649;BME280;11491;41.942;24.220;2022-12-19T09:46:05;91487.81;;;1.03;92.39
22649;BME280;11491;41.942;24.220;2022-12-19T09:48:38;91490.09;;;0.94;92.47
22649;BME280;11491;41.942;24.220;2022-12-19T09:51:07;91458.75;;;0.71;92.26
22649;BME280;11491;41.942;24.220;2022-12-19T09:53:52;91482.81;;;0.79;92.71
22649;BME280;11491;41.942;24.220;2022-12-19T09:56:27;91327.97;;;-0.39;92.06
22649;BME280;11491;41.942;24.220;2022-12-19T09:58:59;91300.38;;;-0.58;92.00
22649;BME280;11491;41.942;24.220;2022-12-19T10:01:31;91354.47;;;-0.24;93.01
22649;BME280;11491;41.942;24.220;2022-12-19T10:04:02;91476.28;;;0.60;93.03
22649;BME280;11491;41.942;24.220;2022-12-19T10:06:31;91503.94;;;0.62;93.23
22649;BME280;11491;41.942;24.220;2022-12-19T10:08:58;91343.81;;;-0.34;92.86
22649;BME280;11491;41.942;24.220;2022-12-19T10:11:41;91436.22;;;0.36;93.10
22649;BME280;11491;41.942;24.220;2022-12-19T10:14:29;91440.16;;;0.55;93.09
22649;BME280;11491;41.942;24.220;2022-12-19T10:17:13;91302.19;;;-0.42;92.65
22649;BME280;11491;41.942;24.220;2022-12-19T10:20:04;91319.72;;;-0.26;93.29
22649;BME280;11491;41.942;24.220;2022-12-19T10:22:40;91462.84;;;0.39;92.38
22649;BME280;11491;41.942;24.220;2022-12-19T10:25:28;91375.94;;;-0.10;93.21
22649;BME280;11491;41.942;24.220;2022-12-19T10:28:05;91297.69;;;-0.63;93.15
22649;BME280;11491;41.942;24.220;2022-12-19T10:30:42;91390.22;;;-0.23;93.59
22649;BME280;11491;41.942;24.220;2022-12-19T10:33:16;91344.63;;;-0.50;94.97
22649;BME280;11491;41.942;24.220;2022-12-19T10:35:51;91282.41;;;-0.67;94.82
22649;BME280;11491;41.942;24.220;2022-12-19T10:38:25;91267.47;;;-0.83;93.74
22649;BME280;11491;41.942;24.220;2022-12-19T10:41:07;91281.94;;;-0.80;94.10
22649;BME280;11491;41.942;24.220;2022-12-19T10:43:46;91388.97;;;0.02;93.05
22649;BME280;11491;41.942;24.220;2022-12-19T10:46:22;91288.69;;;-0.68;94.73
22649;BME280;11491;41.942;24.220;2022-12-19T10:51:33;91358.13;;;-0.25;93.42
22649;BME280;11491;41.942;24.220;2022-12-19T10:54:00;91390.44;;;-0.07;94.36
22649;BME280;11491;41.942;24.220;2022-12-19T10:56:29;91373.06;;;-0.08;94.18
22649;BME280;11491;41.942;24.220;2022-12-19T11:04:19;91290.22;;;-0.72;93.21
22649;BME280;11491;41.942;24.220;2022-12-19T11:06:49;91401.72;;;0.10;93.28
22649;BME280;11491;41.942;24.220;2022-12-19T11:09:22;91310.53;;;-0.45;93.25
22649;BME280;11491;41.942;24.220;2022-12-19T11:11:57;91382.69;;;0.03;93.04
22649;BME280;11491;41.942;24.220;2022-12-19T11:14:27;91317.53;;;-0.34;93.59
22649;BME280;11491;41.942;24.220;2022-12-19T11:16:54;91291.53;;;-0.30;90.43
22649;BME280;11491;41.942;24.220;2022-12-19T11:19:29;91289.63;;;-0.35;90.44
22649;BME280;11491;41.942;24.220;2022-12-19T11:21:59;91417.13;;;0.68;90.92
22649;BME280;11491;41.942;24.220;2022-12-19T11:24:33;91365.22;;;0.41;89.68
22649;BME280;11491;41.942;24.220;2022-12-19T11:29:43;91364.38;;;0.57;90.39
22649;BME280;11491;41.942;24.220;2022-12-19T11:32:30;91405.78;;;0.94;89.81
22649;BME280;11491;41.942;24.220;2022-12-19T11:35:19;91275.94;;;0.07;88.85
22649;BME280;11491;41.942;24.220;2022-12-19T11:37:50;91423.22;;;0.95;88.29
22649;BME280;11491;41.942;24.220;2022-12-19T12:07:33;91324.56;;;0.05;87.93
22649;BME280;11491;41.942;24.220;2022-12-19T12:10:11;91403.41;;;0.66;88.25
22649;BME280;11491;41.942;24.220;2022-12-19T12:12:50;91258.69;;;-0.28;87.83
22649;BME280;11491;41.942;24.220;2022-12-19T12:15:49;91293.81;;;0.05;87.39
22649;BME280;11491;41.942;24.220;2022-12-19T12:18:42;91354.47;;;0.42;86.70
22649;BME280;11491;41.942;24.220;2022-12-19T13:06:18;91279.28;;;-0.63;86.09
22649;BME280;11491;41.942;24.220;2022-12-19T13:50:39;91448.38;;;-0.02;89.57
22649;BME280;11491;41.942;24.220;2022-12-19T13:53:10;91270.19;;;-1.28;89.25
22649;BME280;11491;41.942;24.220;2022-12-19T13:55:40;91372.03;;;-0.63;89.25
22649;BME280;11491;41.942;24.220;2022-12-19T13:58:21;91309.09;;;-1.09;87.83
22649;BME280;11491;41.942;24.220;2022-12-19T14:00:49;91315.56;;;-0.99;88.21
22649;BME280;11491;41.942;24.220;2022-12-19T14:03:21;91401.41;;;-0.49;88.22
22649;BME280;11491;41.942;24.220;2022-12-19T14:05:52;91305.19;;;-1.23;89.15
22649;BME280;11491;41.942;24.220;2022-12-19T14:08:21;91293.56;;;-1.27;88.38
22649;BME280;11491;41.942;24.220;2022-12-19T14:10:50;91301.16;;;-1.14;88.53
22649;BME280;11491;41.942;24.220;2022-12-19T14:13:20;91444.97;;;-0.19;88.41
22649;BME280;11491;41.942;24.220;2022-12-19T14:16:06;91448.13;;;-0.17;89.39
22649;BME280;11491;41.942;24.220;2022-12-19T14:18:39;91459.59;;;-0.07;87.87
22649;BME280;11491;41.942;24.220;2022-12-19T14:23:42;91490.69;;;-0.20;88.63
22649;BME280;11491;41.942;24.220;2022-12-19T14:26:13;91472.19;;;-0.26;88.64
22649;BME280;11491;41.942;24.220;2022-12-19T14:28:55;91469.97;;;-0.34;89.06
22649;BME280;11491;41.942;24.220;2022-12-19T14:33:59;91376.63;;;-1.21;88.59
22649;BME280;11491;41.942;24.220;2022-12-19T14:36:29;91490.34;;;-0.58;87.23
22649;BME280;11491;41.942;24.220;2022-12-19T14:38:58;91414.38;;;-0.93;87.64
22649;BME280;11491;41.942;24.220;2022-12-19T14:41:39;91351.09;;;-1.54;87.63
22649;BME280;11491;41.942;24.220;2022-12-19T14:44:42;91353.50;;;-1.53;87.36
22649;BME280;11491;41.942;24.220;2022-12-19T14:47:11;91438.25;;;-0.78;86.46
22649;BME280;11491;41.942;24.220;2022-12-19T14:52:34;91350.28;;;-1.26;85.75
22649;BME280;11491;41.942;24.220;2022-12-19T14:55:32;91354.97;;;-1.28;86.02
22649;BME280;11491;41.942;24.220;2022-12-19T14:58:06;91498.50;;;-0.26;85.95
22649;BME280;11491;41.942;24.220;2022-12-19T15:00:43;91489.88;;;-0.38;85.51
22649;BME280;11491;41.942;24.220;2022-12-19T15:03:16;91462.50;;;-0.42;85.44
22649;BME280;11491;41.942;24.220;2022-12-19T15:05:46;91384.44;;;-0.92;84.80
22649;BME280;11491;41.942;24.220;2022-12-19T15:08:23;91420.19;;;-0.57;85.05
22649;BME280;11491;41.942;24.220;2022-12-19T15:10:58;91451.97;;;-0.25;84.55
22649;BME280;11491;41.942;24.220;2022-12-19T15:18:58;91473.06;;;-0.03;83.87
22649;BME280;11491;41.942;24.220;2022-12-19T15:21:26;91326.59;;;-0.97;83.66
22649;BME280;11491;41.942;24.220;2022-12-19T15:23:53;91427.75;;;-0.27;82.43
22649;BME280;11491;41.942;24.220;2022-12-19T15:26:28;91339.72;;;-0.97;82.02
22649;BME280;11491;41.942;24.220;2022-12-19T15:28:57;91393.47;;;-0.54;82.33
22649;BME280;11491;41.942;24.220;2022-12-19T15:31:31;91373.63;;;-0.79;82.52
22649;BME280;11491;41.942;24.220;2022-12-19T15:34:01;91435.25;;;-0.36;81.68
22649;BME280;11491;41.942;24.220;2022-12-19T15:36:32;91389.84;;;-0.48;81.56
22649;BME280;11491;41.942;24.220;2022-12-19T15:38:59;91475.22;;;0.00;81.68
22649;BME280;11491;41.942;24.220;2022-12-19T15:41:28;91347.84;;;-0.82;80.99